createdAt,value
2023-01-01T00:00:48.796Z,9.34
2023-01-01T00:03:16.370Z,9.34
2023-01-01T00:05:43.780Z,9.26
2023-01-01T00:08:29.433Z,9.27
2023-01-01T00:11:01.410Z,9.32
2023-01-01T00:13:28.690Z,9.37
2023-01-01T00:15:56.044Z,9.37
2023-01-01T00:18:23.422Z,9.35
2023-01-01T00:20:50.805Z,9.35
2023-01-01T00:23:18.189Z,9.34
2023-01-01T00:25:45.511Z,9.35
2023-01-01T00:28:13.069Z,9.33
2023-01-01T00:30:41.785Z,9.31
2023-01-01T00:33:09.191Z,9.31
2023-01-01T00:35:36.580Z,9.31
2023-01-01T00:38:04.001Z,9.40
2023-01-01T00:40:31.583Z,9.45
2023-01-01T00:42:58.937Z,9.38
2023-01-01T00:45:26.284Z,9.42
2023-01-01T00:47:54.357Z,9.34
2023-01-01T00:50:22.543Z,9.36
2023-01-01T00:52:50.505Z,9.32
2023-01-01T00:55:18.103Z,9.29
2023-01-01T00:57:45.504Z,9.32
2023-01-01T01:00:13.913Z,9.28
2023-01-01T01:02:41.562Z,9.29
2023-01-01T01:05:09.689Z,9.21
2023-01-01T01:07:38.130Z,9.24
2023-01-01T01:10:06.355Z,9.27
2023-01-01T01:12:34.937Z,9.27
2023-01-01T01:15:03.442Z,9.30
2023-01-01T01:17:31.180Z,9.41
2023-01-01T01:19:58.885Z,9.40
2023-01-01T01:22:28.921Z,9.38
2023-01-01T01:24:57.803Z,9.33
2023-01-01T01:27:25.419Z,9.31
2023-01-01T01:29:53.853Z,9.30
2023-01-01T01:32:39.978Z,9.38
2023-01-01T01:35:07.780Z,9.40
2023-01-01T01:37:35.293Z,9.41
2023-01-01T01:40:02.847Z,9.34
2023-01-01T01:42:30.215Z,9.31
2023-01-01T01:45:00.817Z,9.28
2023-01-01T01:47:39.471Z,9.26
2023-01-01T01:50:13.611Z,9.24
2023-01-01T01:52:51.974Z,9.21
2023-01-01T01:55:19.363Z,9.22
2023-01-01T01:57:46.763Z,9.23
2023-01-01T02:00:14.717Z,9.23
2023-01-01T02:02:54.701Z,9.30
2023-01-01T02:05:22.964Z,9.33
2023-01-01T02:07:52.540Z,9.28
2023-01-01T02:10:20.096Z,9.22
2023-01-01T02:12:47.700Z,9.22
2023-01-01T02:15:15.424Z,9.21
2023-01-01T02:17:57.711Z,9.20
2023-01-01T02:20:31.208Z,9.20
2023-01-01T02:23:26.451Z,9.15
2023-01-01T02:26:21.095Z,9.12
2023-01-01T02:29:01.105Z,9.14
2023-01-01T02:31:35.447Z,9.12
2023-01-01T02:34:06.842Z,9.15
2023-01-01T02:36:39.773Z,9.13
2023-01-01T02:39:09.429Z,9.16
2023-01-01T02:41:42.257Z,9.17
2023-01-01T02:44:11.766Z,9.18
2023-01-01T02:46:39.217Z,9.15
2023-01-01T02:49:10.643Z,9.18
2023-01-01T02:52:06.690Z,9.21
2023-01-01T02:54:37.909Z,9.18
2023-01-01T02:57:31.544Z,9.12
2023-01-01T03:00:21.604Z,9.13
2023-01-01T03:03:01.184Z,9.10
2023-01-01T03:05:37.436Z,9.09
2023-01-01T03:08:10.221Z,9.06
2023-01-01T03:10:56.408Z,9.06
2023-01-01T03:13:49.978Z,9.05
2023-01-01T03:16:39.429Z,9.08
2023-01-01T03:19:25.892Z,9.07
2023-01-01T03:22:02.535Z,9.06
2023-01-01T03:24:34.491Z,9.17
2023-01-01T03:27:08.873Z,9.21
2023-01-01T03:29:40.375Z,9.18
2023-01-01T03:32:15.915Z,9.21
2023-01-01T03:34:53.175Z,9.21
2023-01-01T03:37:26.232Z,9.21
2023-01-01T03:39:57.940Z,9.18
2023-01-01T03:42:36.414Z,9.13
2023-01-01T03:45:10.674Z,9.18
2023-01-01T03:47:38.355Z,9.26
2023-01-01T03:50:06.558Z,9.30
2023-01-01T03:52:49.299Z,9.31
2023-01-01T03:55:31.375Z,9.32
2023-01-01T03:58:07.764Z,9.36
2023-01-01T04:00:40.119Z,9.31
2023-01-01T04:03:23.622Z,9.40
2023-01-01T04:05:51.641Z,9.42
2023-01-01T04:08:19.596Z,9.33
2023-01-01T04:10:56.413Z,9.40
2023-01-01T04:13:24.277Z,9.34
2023-01-01T04:15:52.243Z,9.30
2023-01-01T04:18:19.798Z,9.34
2023-01-01T04:20:47.268Z,9.27
2023-01-01T04:23:14.969Z,9.28
2023-01-01T04:25:42.347Z,9.26
2023-01-01T04:28:09.759Z,9.21
2023-01-01T04:33:03.401Z,9.26
2023-01-01T04:35:30.841Z,9.25
2023-01-01T04:38:00.587Z,9.20
2023-01-01T04:40:28.017Z,9.20
2023-01-01T04:42:55.430Z,9.19
2023-01-01T04:45:22.931Z,9.22
2023-01-01T04:47:50.533Z,9.19
2023-01-01T04:50:17.949Z,9.21
2023-01-01T04:52:45.436Z,9.17
2023-01-01T04:55:12.907Z,9.19
2023-01-01T04:57:40.600Z,9.23
2023-01-01T05:00:08.783Z,9.20
2023-01-01T05:02:36.287Z,9.18
2023-01-01T05:05:04.024Z,9.13
2023-01-01T05:07:33.632Z,9.17
2023-01-01T05:10:00.993Z,9.17
2023-01-01T05:12:30.178Z,9.11
2023-01-01T05:14:57.664Z,9.10
2023-01-01T05:17:25.056Z,9.02
2023-01-01T05:19:52.451Z,9.08
2023-01-01T05:22:19.864Z,9.21
2023-01-01T05:24:47.301Z,9.16
2023-01-01T05:27:14.688Z,9.13
2023-01-01T05:29:42.136Z,9.06
2023-01-01T05:37:02.015Z,9.05
2023-01-01T05:39:29.351Z,9.04
2023-01-01T05:41:58.241Z,9.09
2023-01-01T05:44:26.048Z,9.01
2023-01-01T05:46:53.431Z,8.97
2023-01-01T05:49:20.771Z,9.02
2023-01-01T05:51:48.079Z,9.03
2023-01-01T05:56:41.818Z,8.99
2023-01-01T05:59:10.815Z,9.03
2023-01-01T06:01:45.184Z,9.04
2023-01-01T06:04:13.557Z,9.09
2023-01-01T06:06:41.106Z,9.12
2023-01-01T06:09:10.809Z,9.16
2023-01-01T06:11:38.341Z,9.15
2023-01-01T06:14:05.830Z,9.19
2023-01-01T06:16:33.317Z,9.14
2023-01-01T06:19:00.837Z,9.10
2023-01-01T06:21:29.582Z,9.10
2023-01-01T06:24:00.365Z,9.06
2023-01-01T06:26:30.998Z,9.03
2023-01-01T06:29:00.143Z,9.04
2023-01-01T06:31:28.583Z,9.04
2023-01-01T06:33:56.199Z,9.02
2023-01-01T06:36:25.453Z,9.05
2023-01-01T06:38:55.783Z,9.08
2023-01-01T06:41:25.732Z,9.07
2023-01-01T06:43:58.020Z,9.17
2023-01-01T06:46:28.172Z,9.12
2023-01-01T06:49:07.685Z,9.19
2023-01-01T06:51:40.565Z,9.14
2023-01-01T06:54:09.093Z,9.17
2023-01-01T06:56:37.370Z,9.20
2023-01-01T06:59:05.679Z,9.20
2023-01-01T07:01:39.628Z,9.07
2023-01-01T07:04:11.106Z,9.17
2023-01-01T07:06:39.263Z,9.11
2023-01-01T07:09:08.201Z,9.06
2023-01-01T07:11:36.284Z,9.17
2023-01-01T07:14:03.903Z,9.15
2023-01-01T07:16:31.402Z,9.02
2023-01-01T07:18:58.908Z,9.06
2023-01-01T07:21:29.614Z,9.13
2023-01-01T07:23:59.268Z,9.14
2023-01-01T07:26:28.350Z,9.30
2023-01-01T07:28:59.623Z,9.27
2023-01-01T07:31:34.260Z,9.25
2023-01-01T07:34:01.996Z,9.20
2023-01-01T07:36:29.429Z,9.18
2023-01-01T07:38:56.859Z,9.28
2023-01-01T07:41:24.303Z,9.23
2023-01-01T07:43:52.488Z,9.27
2023-01-01T07:46:20.166Z,9.29
2023-01-01T07:48:47.745Z,9.33
2023-01-01T07:51:15.631Z,9.36
2023-01-01T07:53:43.091Z,9.43
2023-01-01T07:56:10.764Z,9.47
2023-01-01T07:58:41.723Z,9.44
2023-01-01T08:01:14.725Z,9.48
2023-01-01T08:03:42.559Z,9.44
2023-01-01T08:06:12.312Z,9.56
2023-01-01T08:08:40.191Z,9.60
2023-01-01T08:11:08.794Z,9.54
2023-01-01T08:13:36.462Z,9.54
2023-01-01T08:16:04.330Z,9.60
2023-01-01T08:18:31.870Z,9.63
2023-01-01T08:20:59.268Z,9.59
2023-01-01T08:23:26.798Z,9.55
2023-01-01T08:25:58.014Z,9.64
2023-01-01T08:28:25.305Z,9.66
2023-01-01T08:30:52.915Z,9.64
2023-01-01T08:33:21.176Z,9.65
2023-01-01T08:35:54.004Z,9.57
2023-01-01T08:38:22.235Z,9.73
2023-01-01T08:40:49.749Z,9.75
2023-01-01T08:43:17.470Z,9.80
2023-01-01T08:45:45.763Z,9.84
2023-01-01T08:48:13.143Z,9.84
2023-01-01T08:50:40.520Z,9.94
2023-01-01T08:53:07.948Z,10.01
2023-01-01T08:55:35.586Z,9.98
2023-01-01T08:58:06.701Z,10.00
2023-01-01T09:00:34.052Z,9.99
2023-01-01T09:03:01.635Z,10.08
2023-01-01T09:05:29.156Z,10.01
2023-01-01T09:07:56.549Z,10.04
2023-01-01T09:10:23.963Z,10.03
2023-01-01T09:12:51.385Z,10.10
2023-01-01T09:15:18.793Z,10.00
2023-01-01T09:17:46.179Z,10.09
2023-01-01T09:20:13.680Z,10.15
2023-01-01T09:22:41.073Z,10.19
2023-01-01T09:25:08.693Z,10.18
2023-01-01T09:27:36.131Z,10.24
2023-01-01T09:30:04.439Z,10.27
2023-01-01T09:32:32.116Z,10.31
2023-01-01T09:35:01.125Z,10.30
2023-01-01T09:37:28.639Z,10.33
2023-01-01T09:39:56.067Z,10.32
2023-01-01T09:42:35.981Z,10.38
2023-01-01T09:45:07.614Z,10.38
2023-01-01T09:47:41.301Z,10.40
2023-01-01T09:50:15.139Z,10.42
2023-01-01T09:52:51.360Z,10.54
2023-01-01T09:55:26.006Z,10.54
2023-01-01T09:57:55.606Z,10.55
2023-01-01T10:00:23.383Z,10.52
2023-01-01T10:03:17.264Z,10.51
2023-01-01T10:05:44.551Z,10.62
2023-01-01T10:08:25.053Z,10.49
2023-01-01T10:11:17.558Z,10.54
2023-01-01T10:13:46.272Z,10.63
2023-01-01T10:16:25.478Z,10.70
2023-01-01T10:18:56.896Z,10.71
2023-01-01T10:21:34.178Z,10.75
2023-01-01T10:24:06.175Z,10.80
2023-01-01T10:26:35.023Z,10.83
2023-01-01T10:29:25.285Z,10.81
2023-01-01T10:31:55.315Z,10.78
2023-01-01T10:34:32.377Z,10.77
2023-01-01T10:37:00.984Z,10.79
2023-01-01T10:39:28.544Z,10.68
2023-01-01T10:41:57.975Z,10.93
2023-01-01T10:44:34.531Z,10.83
2023-01-01T10:47:30.117Z,10.92
2023-01-01T10:50:07.654Z,10.82
2023-01-01T10:52:38.024Z,10.86
2023-01-01T10:55:06.704Z,10.83
2023-01-01T10:57:38.617Z,10.77
2023-01-01T11:00:11.466Z,10.80
2023-01-01T11:02:39.068Z,10.86
2023-01-01T11:05:21.425Z,10.98
2023-01-01T11:07:50.224Z,11.18
2023-01-01T11:10:24.010Z,11.21
2023-01-01T11:13:09.177Z,11.20
2023-01-01T11:15:42.092Z,11.27
2023-01-01T11:18:41.859Z,11.13
2023-01-01T11:21:09.461Z,11.21
2023-01-01T11:23:39.583Z,11.32
2023-01-01T11:26:20.958Z,11.32
2023-01-01T11:29:14.651Z,11.23
2023-01-01T11:31:48.110Z,11.26
2023-01-01T11:34:38.204Z,11.30
2023-01-01T11:37:19.761Z,11.30
2023-01-01T11:39:51.073Z,11.18
2023-01-01T11:42:27.425Z,11.17
2023-01-01T11:44:59.493Z,11.13
2023-01-01T11:47:40.759Z,11.11
2023-01-01T11:50:13.806Z,11.17
2023-01-01T11:52:44.476Z,11.12
2023-01-01T11:55:37.830Z,11.29
2023-01-01T11:58:19.915Z,11.23
2023-01-01T12:00:56.304Z,11.07
2023-01-01T12:03:33.794Z,11.19
2023-01-01T12:06:23.792Z,11.14
2023-01-01T12:09:05.231Z,11.15
2023-01-01T12:11:44.614Z,11.11
2023-01-01T12:14:42.600Z,11.22
2023-01-01T12:17:16.844Z,11.13
2023-01-01T12:20:43.995Z,11.17
2023-01-01T12:23:17.572Z,11.25
2023-01-01T12:25:52.610Z,11.30
2023-01-01T12:28:34.135Z,11.29
2023-01-01T12:31:08.096Z,11.38
2023-01-01T12:33:53.457Z,11.34
2023-01-01T12:37:13.418Z,11.23
2023-01-01T12:39:52.862Z,11.39
2023-01-01T12:42:36.586Z,11.38
2023-01-01T12:45:15.899Z,11.31
2023-01-01T12:48:13.944Z,11.24
2023-01-01T12:50:56.094Z,11.27
2023-01-01T12:53:57.881Z,11.14
2023-01-01T12:56:39.618Z,11.06
2023-01-01T12:59:20.162Z,11.17
2023-01-01T13:01:49.557Z,11.14
2023-01-01T13:04:22.323Z,11.14
2023-01-01T13:07:06.774Z,11.14
2023-01-01T13:09:45.320Z,11.06
2023-01-01T13:12:16.542Z,11.00
2023-01-01T13:14:46.409Z,10.94
2023-01-01T13:17:22.675Z,11.03
2023-01-01T13:19:57.886Z,11.03
2023-01-01T13:22:28.288Z,10.99
2023-01-01T13:25:07.584Z,10.99
2023-01-01T13:28:00.674Z,11.01
2023-01-01T13:30:37.554Z,10.89
2023-01-01T13:33:21.519Z,10.98
2023-01-01T13:36:08.464Z,10.97
2023-01-01T13:38:52.710Z,10.86
2023-01-01T13:41:38.750Z,10.86
2023-01-01T13:44:06.060Z,10.80
2023-01-01T13:46:39.393Z,10.80
2023-01-01T13:49:28.306Z,10.73
2023-01-01T13:52:20.521Z,10.74
2023-01-01T13:55:02.394Z,10.84
2023-01-01T13:57:32.451Z,10.82
2023-01-01T14:00:16.487Z,10.83
2023-01-01T14:03:00.610Z,10.85
2023-01-01T14:05:37.421Z,10.80
2023-01-01T14:08:09.933Z,10.70
2023-01-01T14:10:40.623Z,10.69
2023-01-01T14:13:10.802Z,10.76
2023-01-01T14:15:41.683Z,10.66
2023-01-01T14:18:16.480Z,10.56
2023-01-01T14:20:48.224Z,10.64
2023-01-01T14:23:21.719Z,10.59
2023-01-01T14:25:49.623Z,10.62
2023-01-01T14:28:26.031Z,10.61
2023-01-01T14:30:56.153Z,10.66
2023-01-01T14:33:26.930Z,10.56
2023-01-01T14:35:56.859Z,10.59
2023-01-01T14:38:33.390Z,10.56
2023-01-01T14:41:11.394Z,10.54
2023-01-01T14:43:41.413Z,10.53
2023-01-01T14:46:18.651Z,10.50
2023-01-01T14:48:48.361Z,10.55
2023-01-01T14:51:19.799Z,10.55
2023-01-01T14:53:49.222Z,10.56
2023-01-01T14:56:28.635Z,10.55
2023-01-01T14:59:22.302Z,10.58
2023-01-01T15:02:16.876Z,10.52
2023-01-01T15:04:44.575Z,10.48
2023-01-01T15:07:23.798Z,10.46
2023-01-01T15:09:53.989Z,10.53
2023-01-01T15:12:22.912Z,10.45
2023-01-01T15:14:53.129Z,10.48
2023-01-01T15:17:23.444Z,10.47
2023-01-01T15:20:01.583Z,10.46
2023-01-01T15:22:35.159Z,10.44
2023-01-01T15:25:04.210Z,10.55
2023-01-01T15:27:36.699Z,10.44
2023-01-01T15:30:13.222Z,10.42
2023-01-01T15:32:41.538Z,10.38
2023-01-01T15:35:32.803Z,10.38
2023-01-01T15:38:10.828Z,10.35
2023-01-01T15:40:38.314Z,10.35
2023-01-01T15:43:14.502Z,10.28
2023-01-01T15:45:42.671Z,10.31
2023-01-01T15:48:31.796Z,10.32
2023-01-01T15:51:09.205Z,10.32
2023-01-01T15:53:49.161Z,10.29
2023-01-01T15:56:17.689Z,10.27
2023-01-01T15:59:03.723Z,10.24
2023-01-01T16:01:38.936Z,10.24
2023-01-01T16:04:29.043Z,10.24
2023-01-01T16:06:59.862Z,10.21
2023-01-01T16:09:38.811Z,10.14
2023-01-01T16:12:08.358Z,10.17
2023-01-01T16:14:36.126Z,10.13
2023-01-01T16:17:03.829Z,10.12
2023-01-01T16:19:32.479Z,10.13
2023-01-01T16:21:59.856Z,10.13
2023-01-01T16:24:27.859Z,10.07
2023-01-01T16:26:55.228Z,10.08
2023-01-01T16:29:22.619Z,10.12
2023-01-01T16:31:50.935Z,10.12
2023-01-01T16:34:18.305Z,10.14
2023-01-01T16:36:45.974Z,10.12
2023-01-01T16:39:13.515Z,10.10
2023-01-01T16:41:42.772Z,10.17
2023-01-01T16:44:16.783Z,10.13
2023-01-01T16:46:44.265Z,10.13
2023-01-01T16:49:11.747Z,10.11
2023-01-01T16:51:43.461Z,10.10
2023-01-01T16:54:11.752Z,10.12
2023-01-01T16:56:39.112Z,10.13
2023-01-01T16:59:06.482Z,10.10
2023-01-01T17:01:34.027Z,10.12
2023-01-01T17:04:01.458Z,10.09
2023-01-01T17:06:29.290Z,10.06
2023-01-01T17:08:56.775Z,10.05
2023-01-01T17:11:25.046Z,10.05
2023-01-01T17:13:52.958Z,10.03
2023-01-01T17:16:26.363Z,10.05
2023-01-01T17:21:45.918Z,10.03
2023-01-01T17:24:15.278Z,10.07
2023-01-01T17:26:42.792Z,10.04
2023-01-01T17:29:10.379Z,10.02
2023-01-01T17:31:38.199Z,10.00
2023-01-01T17:34:05.623Z,10.00
2023-01-01T17:36:33.013Z,9.98
2023-01-01T17:39:00.367Z,9.99
2023-01-01T17:41:27.780Z,9.98
2023-01-01T17:43:55.951Z,9.95
2023-01-01T17:46:26.031Z,9.94
2023-01-01T17:48:54.524Z,9.95
2023-01-01T17:51:22.775Z,9.95
2023-01-01T17:53:50.236Z,9.96
2023-01-01T17:56:19.608Z,9.94
2023-01-01T17:58:48.003Z,9.93
2023-01-01T18:01:21.625Z,9.92
2023-01-01T18:03:51.633Z,9.91
2023-01-01T18:06:19.194Z,9.92
2023-01-01T18:08:46.853Z,9.92
2023-01-01T18:11:14.670Z,9.88
2023-01-01T18:13:42.055Z,9.92
2023-01-01T18:16:10.254Z,9.92
2023-01-01T18:18:39.166Z,9.90
2023-01-01T18:21:19.348Z,9.88
2023-01-01T18:23:47.728Z,9.91
2023-01-01T18:26:15.840Z,9.87
2023-01-01T18:28:43.315Z,9.88
2023-01-01T18:31:20.532Z,9.86
2023-01-01T18:33:48.036Z,9.83
2023-01-01T18:36:18.611Z,9.82
2023-01-01T18:38:55.563Z,9.85
2023-01-01T18:41:50.737Z,9.85
2023-01-01T18:44:22.379Z,9.81
2023-01-01T18:47:03.921Z,9.79
2023-01-01T18:49:32.099Z,9.82
2023-01-01T18:52:24.446Z,9.80
2023-01-01T18:55:02.241Z,9.84
2023-01-01T18:57:29.909Z,9.82
2023-01-01T19:00:31.232Z,9.85
2023-01-01T19:03:01.764Z,9.88
2023-01-01T19:05:34.118Z,9.86
2023-01-01T19:08:10.321Z,9.87
2023-01-01T19:10:43.128Z,9.89
2023-01-01T19:13:35.031Z,9.82
2023-01-01T19:16:11.688Z,9.84
2023-01-01T19:18:41.763Z,9.83
2023-01-01T19:21:12.104Z,9.85
2023-01-01T19:23:50.668Z,9.82
2023-01-01T19:26:29.781Z,9.79
2023-01-01T19:29:13.096Z,9.82
2023-01-01T19:31:40.954Z,9.78
2023-01-01T19:34:08.380Z,9.76
2023-01-01T19:36:35.711Z,9.76
2023-01-01T19:39:03.319Z,9.74
2023-01-01T19:41:30.746Z,9.76
2023-01-01T19:43:58.108Z,9.80
2023-01-01T19:46:25.516Z,9.77
2023-01-01T19:48:55.821Z,9.78
2023-01-01T19:51:23.399Z,9.80
2023-01-01T19:53:52.548Z,9.77
2023-01-01T19:56:20.575Z,9.76
2023-01-01T19:58:48.446Z,9.74
2023-01-01T20:01:16.118Z,9.74
2023-01-01T20:03:54.256Z,9.75
2023-01-01T20:06:22.395Z,9.76
2023-01-01T20:08:49.840Z,9.82
2023-01-01T20:11:17.397Z,9.77
2023-01-01T20:13:44.827Z,9.74
2023-01-01T20:16:12.423Z,9.73
2023-01-01T20:18:39.895Z,9.71
2023-01-01T20:21:26.924Z,9.71
2023-01-01T20:23:55.572Z,9.71
2023-01-01T20:26:25.624Z,9.71
2023-01-01T20:29:11.719Z,9.71
2023-01-01T20:31:39.779Z,9.71
2023-01-01T20:34:07.496Z,9.69
2023-01-01T20:36:53.508Z,9.68
2023-01-01T20:39:22.510Z,9.68
2023-01-01T20:41:50.185Z,9.69
2023-01-01T20:44:17.772Z,9.70
2023-01-01T20:46:48.092Z,9.72
2023-01-01T20:49:19.491Z,9.73
2023-01-01T20:51:51.376Z,9.76
2023-01-01T20:54:20.209Z,9.80
2023-01-01T20:56:47.886Z,9.77
2023-01-01T20:59:34.757Z,9.72
2023-01-01T21:02:04.974Z,9.72
2023-01-01T21:04:32.706Z,9.70
2023-01-01T21:07:00.159Z,9.69
2023-01-01T21:09:27.487Z,9.68
2023-01-01T21:11:54.881Z,9.69
2023-01-01T21:14:25.172Z,9.65
2023-01-01T21:16:52.914Z,9.62
2023-01-01T21:19:26.260Z,9.60
2023-01-01T21:21:58.542Z,9.62
2023-01-01T21:24:35.302Z,9.62
2023-01-01T21:27:25.976Z,9.64
2023-01-01T21:29:56.063Z,9.64
2023-01-01T21:32:26.867Z,9.62
2023-01-01T21:34:55.545Z,9.62
2023-01-01T21:37:45.192Z,9.61
2023-01-01T21:40:36.863Z,9.62
2023-01-01T21:43:19.309Z,9.62
2023-01-01T21:45:48.541Z,9.64
2023-01-01T21:48:19.263Z,9.62
2023-01-01T21:50:48.417Z,9.59
2023-01-01T21:53:21.917Z,9.61
2023-01-01T21:55:52.288Z,9.61
2023-01-01T21:58:56.911Z,9.59
2023-01-01T22:01:35.954Z,9.58
2023-01-01T22:04:19.575Z,9.58
2023-01-01T22:07:00.673Z,9.54
2023-01-01T22:09:48.645Z,9.53
2023-01-01T22:12:15.956Z,9.53
2023-01-01T22:14:45.837Z,9.52
2023-01-01T22:17:25.129Z,9.51
2023-01-01T22:19:59.093Z,9.53
2023-01-01T22:22:34.182Z,9.54
2023-01-01T22:25:17.907Z,9.50
2023-01-01T22:27:46.137Z,9.51
2023-01-01T22:30:13.475Z,9.48
2023-01-01T22:32:40.875Z,9.52
2023-01-01T22:35:16.980Z,9.50
2023-01-01T22:37:44.353Z,9.52
2023-01-01T22:40:23.732Z,9.49
2023-01-01T22:42:51.136Z,9.56
2023-01-01T22:45:18.596Z,9.53
2023-01-01T22:47:46.167Z,9.56
2023-01-01T22:50:23.401Z,9.64
2023-01-01T22:52:51.049Z,9.60
2023-01-01T22:55:18.917Z,9.58
2023-01-01T22:57:46.344Z,9.55
2023-01-01T23:00:15.302Z,9.52
2023-01-01T23:02:43.244Z,9.51
2023-01-01T23:05:11.533Z,9.47
2023-01-01T23:07:42.064Z,9.47
2023-01-01T23:10:14.962Z,9.45
2023-01-01T23:12:42.342Z,9.42
2023-01-01T23:15:28.930Z,9.40
2023-01-01T23:17:56.345Z,9.44
2023-01-01T23:20:23.765Z,9.44
2023-01-01T23:22:54.203Z,9.44
2023-01-01T23:25:22.762Z,9.41
2023-01-01T23:27:52.664Z,9.43
2023-01-01T23:30:20.131Z,9.43
2023-01-01T23:32:47.819Z,9.37
2023-01-01T23:35:16.898Z,9.40
2023-01-01T23:37:44.337Z,9.43
2023-01-01T23:40:11.926Z,9.42
2023-01-01T23:42:39.280Z,9.45
2023-01-01T23:45:06.961Z,9.47
2023-01-01T23:47:34.668Z,9.45
2023-01-01T23:50:02.498Z,9.48
2023-01-01T23:52:30.119Z,9.51
2023-01-01T23:54:57.484Z,9.56
2023-01-01T23:57:24.845Z,9.56
2023-01-01T23:59:52.190Z,9.46
